Time;durP1;ratioP1;P1;durP2;ratioP2;P2;SDS_P1;SDS_P2;PMS_P1;PMS_P2;Temp;Humidity;BMP_temperature;BMP_pressure;BME280_temperature;BME280_humidity;BME280_pressure;Samples;Min_cycle;Max_cycle;Signal;HPM_P1;HPM_P2
2023/11/13 00:02:20;;;;;;;8.90;8.00;;;;;;;4.54;100.00;98424.87;109563;1251;58959;-76
2023/11/13 00:04:47;;;;;;;8.30;7.30;;;;;;;4.58;100.00;98431.21;109605;1251;73358;-75
2023/11/13 00:07:13;;;;;;;8.10;7.40;;;;;;;4.63;100.00;98429.40;109662;1251;67989;-73
2023/11/13 00:09:40;;;;;;;9.30;8.50;;;;;;;4.67;100.00;98431.69;109590;1253;71265;-75
2023/11/13 00:12:07;;;;;;;8.40;7.70;;;;;;;4.72;100.00;98433.78;109644;1251;59513;-73
2023/11/13 00:14:34;;;;;;;8.80;7.90;;;;;;;4.76;100.00;98436.73;109642;1250;60481;-75
2023/11/13 00:17:00;;;;;;;9.50;8.60;;;;;;;4.80;100.00;98438.05;109646;1251;74539;-74
2023/11/13 00:19:27;;;;;;;9.40;8.30;;;;;;;4.84;100.00;98441.54;109572;1251;67965;-74
2023/11/13 00:21:54;;;;;;;8.90;8.00;;;;;;;4.88;100.00;98444.31;109591;1254;71490;-74
2023/11/13 00:24:20;;;;;;;8.80;8.00;;;;;;;4.92;100.00;98441.17;109605;1255;61670;-74
2023/11/13 00:26:47;;;;;;;8.20;7.40;;;;;;;4.97;100.00;98439.21;109639;1251;59625;-73
2023/11/13 00:29:16;;;;;;;8.80;8.00;;;;;;;5.04;100.00;98438.27;109608;1251;73415;-76
2023/11/13 00:31:42;;;;;;;8.90;8.10;;;;;;;5.08;100.00;98441.84;109650;1251;66647;-74
2023/11/13 00:34:09;;;;;;;9.40;8.50;;;;;;;5.11;100.00;98444.85;109595;1251;72411;-73
2023/11/13 00:36:35;;;;;;;9.30;8.40;;;;;;;5.14;100.00;98445.91;109616;1251;59035;-76
2023/11/13 00:39:03;;;;;;;9.50;8.60;;;;;;;5.18;100.00;98447.77;109624;1251;58959;-75
2023/11/13 00:41:33;;;;;;;9.20;8.40;;;;;;;5.23;100.00;98450.94;109604;1251;74340;-75
2023/11/13 00:44:02;;;;;;;8.40;7.70;;;;;;;5.27;100.00;98450.66;109637;1251;67875;-75
2023/11/13 00:46:29;;;;;;;9.10;8.00;;;;;;;5.31;100.00;98448.55;109634;1250;71669;-74
2023/11/13 00:48:56;;;;;;;8.00;7.20;;;;;;;5.32;100.00;98445.44;109627;1251;60393;-72
2023/11/13 00:51:22;;;;;;;9.60;6.80;;;;;;;5.33;100.00;98443.79;109593;1250;60076;-72
2023/11/13 00:53:49;;;;;;;7.90;7.20;;;;;;;5.33;100.00;98445.46;109663;1251;74443;-72
2023/11/13 00:56:16;;;;;;;8.20;7.40;;;;;;;5.34;100.00;98449.30;109639;1251;67863;-74
2023/11/13 00:58:43;;;;;;;8.50;7.60;;;;;;;5.34;100.00;98446.45;109719;1250;71613;-75
2023/11/13 01:01:11;;;;;;;8.10;6.80;;;;;;;5.34;100.00;98445.86;109566;1255;60505;-72
2023/11/13 01:03:38;;;;;;;8.00;6.70;;;;;;;5.36;100.00;98448.50;109723;1251;60366;-73
2023/11/13 01:06:04;;;;;;;8.60;7.80;;;;;;;5.38;100.00;98449.02;109562;1250;73867;-75
2023/11/13 01:08:31;;;;;;;8.20;7.30;;;;;;;5.38;100.00;98445.30;109682;1251;66987;-74
2023/11/13 01:10:58;;;;;;;8.30;7.60;;;;;;;5.37;100.00;98446.88;109522;1256;71136;-74
2023/11/13 01:13:25;;;;;;;7.80;7.00;;;;;;;5.36;100.00;98449.27;109612;1251;59894;-75
2023/11/13 01:15:54;;;;;;;8.10;7.10;;;;;;;5.35;100.00;98455.95;109668;1251;60094;-73
2023/11/13 01:18:23;;;;;;;8.30;7.50;;;;;;;5.35;100.00;98455.84;109605;1251;73920;-75
2023/11/13 01:20:49;;;;;;;7.60;6.90;;;;;;;5.34;100.00;98464.33;109570;1251;66848;-76
2023/11/13 01:23:16;;;;;;;7.50;6.70;;;;;;;5.36;100.00;98467.73;109603;1251;72486;-74
2023/11/13 01:25:42;;;;;;;7.70;7.00;;;;;;;5.37;100.00;98468.73;109630;1251;60173;-74
2023/11/13 01:28:12;;;;;;;7.60;7.00;;;;;;;5.38;100.00;98470.92;109595;1250;60443;-72
2023/11/13 01:30:39;;;;;;;7.60;6.90;;;;;;;5.39;100.00;98468.45;109655;1251;74428;-74
2023/11/13 01:33:06;;;;;;;7.40;6.80;;;;;;;5.38;100.00;98469.38;109579;1254;66313;-71
2023/11/13 01:35:33;;;;;;;7.40;6.30;;;;;;;5.37;100.00;98473.89;109584;1251;72870;-74
2023/11/13 01:37:59;;;;;;;6.90;6.10;;;;;;;5.37;100.00;98478.14;109593;1251;61788;-75
2023/11/13 01:40:26;;;;;;;7.40;6.60;;;;;;;5.37;100.00;98482.13;109610;1251;58904;-74
2023/11/13 01:42:52;;;;;;;7.20;6.60;;;;;;;5.37;100.00;98483.19;109650;1251;73447;-75
2023/11/13 01:45:19;;;;;;;7.40;6.80;;;;;;;5.39;100.00;98485.34;109664;1253;67689;-74
2023/11/13 01:47:46;;;;;;;7.80;7.20;;;;;;;5.39;100.00;98487.58;109657;1251;59198;-74
2023/11/13 01:50:12;;;;;;;8.40;7.50;;;;;;;5.39;100.00;98487.91;109516;1251;59907;-71
2023/11/13 01:52:39;;;;;;;7.50;6.80;;;;;;;5.40;100.00;98483.98;109544;1251;60036;-74
2023/11/13 01:55:06;;;;;;;7.60;6.90;;;;;;;5.40;100.00;98482.91;109652;1251;73148;-72
2023/11/13 01:57:33;;;;;;;7.10;6.50;;;;;;;5.40;100.00;98487.15;109598;1251;66069;-72
2023/11/13 01:59:59;;;;;;;8.10;7.30;;;;;;;5.41;100.00;98486.49;109576;1254;71966;-73
2023/11/13 02:02:26;;;;;;;8.10;6.00;;;;;;;5.42;100.00;98486.17;109508;1253;59453;-74
2023/11/13 02:04:53;;;;;;;7.50;6.80;;;;;;;5.43;100.00;98485.34;109687;1251;59355;-75
2023/11/13 02:07:20;;;;;;;8.60;7.60;;;;;;;5.43;100.00;98485.92;109653;1251;73899;-76
2023/11/13 02:09:49;;;;;;;8.10;7.30;;;;;;;5.42;100.00;98489.16;109636;1251;66414;-76
2023/11/13 02:12:16;;;;;;;8.60;7.40;;;;;;;5.41;100.00;98492.60;109382;1251;73076;-74
2023/11/13 02:14:43;;;;;;;8.00;7.30;;;;;;;5.41;100.00;98492.39;109621;1253;60925;-74
2023/11/13 02:17:10;;;;;;;9.50;7.90;;;;;;;5.42;100.00;98497.23;109591;1250;58978;-75
2023/11/13 02:19:37;;;;;;;8.00;7.10;;;;;;;5.43;100.00;98496.85;109621;1254;73662;-75
2023/11/13 02:22:04;;;;;;;8.20;7.40;;;;;;;5.45;100.00;98496.09;109635;1251;67922;-72
2023/11/13 02:24:31;;;;;;;7.50;6.70;;;;;;;5.46;100.00;98501.77;109549;1254;71422;-75
2023/11/13 02:26:57;;;;;;;8.90;8.10;;;;;;;5.46;100.00;98501.60;109575;1251;59151;-72
2023/11/13 02:29:24;;;;;;;8.50;7.70;;;;;;;5.46;100.00;98503.02;109615;1250;59123;-72
2023/11/13 02:31:52;;;;;;;8.90;8.10;;;;;;;5.45;100.00;98507.63;109623;1251;73220;-75
2023/11/13 02:34:19;;;;;;;8.80;8.00;;;;;;;5.45;100.00;98512.80;109675;1251;66734;-73
2023/11/13 02:36:48;;;;;;;9.10;8.30;;;;;;;5.45;100.00;98515.11;109614;1251;72083;-75
2023/11/13 02:39:22;;;;;;;9.10;8.20;;;;;;;5.45;100.00;98512.94;109585;1252;60390;-72
2023/11/13 02:41:48;;;;;;;8.10;7.40;;;;;;;5.48;100.00;98522.67;109663;1251;58914;-75
2023/11/13 02:44:15;;;;;;;8.20;7.50;;;;;;;5.51;100.00;98520.61;109697;1251;59530;-76
2023/11/13 02:46:42;;;;;;;9.20;8.10;;;;;;;5.53;100.00;98517.05;109545;1251;66968;-72
2023/11/13 02:49:08;;;;;;;9.20;8.40;;;;;;;5.53;100.00;98520.31;109546;1254;72580;-72
2023/11/13 02:51:35;;;;;;;9.10;8.30;;;;;;;5.51;100.00;98520.58;109658;1251;62022;-74
2023/11/13 02:54:01;;;;;;;9.20;8.20;;;;;;;5.49;100.00;98523.22;109628;1251;58848;-74
2023/11/13 02:56:28;;;;;;;8.90;7.90;;;;;;;5.49;100.00;98529.96;109695;1251;73382;-77
2023/11/13 02:58:56;;;;;;;8.30;7.50;;;;;;;5.50;100.00;98534.42;109645;1251;67872;-72
2023/11/13 03:01:22;;;;;;;8.80;8.00;;;;;;;5.51;100.00;98545.88;109640;1251;72435;-74
2023/11/13 03:03:49;;;;;;;8.50;7.40;;;;;;;5.52;100.00;98545.29;109635;1251;60097;-73
2023/11/13 03:06:16;;;;;;;9.60;8.80;;;;;;;5.52;100.00;98549.15;109538;1251;60354;-73
2023/11/13 03:08:44;;;;;;;9.90;8.90;;;;;;;5.51;100.00;98538.45;109673;1251;73931;-72
2023/11/13 03:11:13;;;;;;;10.80;9.80;;;;;;;5.51;100.00;98543.80;109662;1254;67718;-77
2023/11/13 03:13:41;;;;;;;9.40;8.60;;;;;;;5.51;100.00;98544.72;109700;1251;71167;-73
2023/11/13 03:16:11;;;;;;;9.50;8.40;;;;;;;5.52;100.00;98545.61;109624;1251;60546;-75
2023/11/13 03:18:37;;;;;;;9.50;8.60;;;;;;;5.54;100.00;98548.41;109522;1251;60041;-75
2023/11/13 03:21:04;;;;;;;10.40;9.30;;;;;;;5.55;100.00;98544.55;109681;1251;74669;-73
2023/11/13 03:23:31;;;;;;;9.80;8.90;;;;;;;5.56;100.00;98547.79;109707;1251;67872;-71
2023/11/13 03:26:00;;;;;;;10.00;8.70;;;;;;;5.58;100.00;98554.27;109538;1256;72602;-72
2023/11/13 03:28:26;;;;;;;12.00;10.90;;;;;;;5.59;100.00;98553.50;109629;1251;60555;-74
2023/11/13 03:30:53;;;;;;;10.60;9.40;;;;;;;5.60;100.00;98557.11;109582;1251;60207;-74
2023/11/13 03:33:21;;;;;;;10.00;9.10;;;;;;;5.60;100.00;98557.44;109666;1251;74620;-72
2023/11/13 03:35:50;;;;;;;10.00;9.10;;;;;;;5.61;100.00;98563.11;109662;1251;67747;-73
2023/11/13 03:38:18;;;;;;;10.50;9.20;;;;;;;5.63;100.00;98564.83;109637;1251;59032;-71
2023/11/13 03:40:44;;;;;;;10.10;9.10;;;;;;;5.65;100.00;98568.38;109586;1251;60361;-76
2023/11/13 03:43:11;;;;;;;11.10;10.10;;;;;;;5.65;100.00;98576.45;109677;1251;58928;-74
2023/11/13 03:45:37;;;;;;;10.40;9.50;;;;;;;5.65;100.00;98576.29;109627;1252;58992;-76
2023/11/13 03:48:04;;;;;;;12.60;10.30;;;;;;;5.63;100.00;98575.09;109612;1251;58894;-72
2023/11/13 03:50:30;;;;;;;9.80;9.00;;;;;;;5.61;100.00;98571.52;109622;1251;72695;-72
2023/11/13 03:52:58;;;;;;;10.80;9.70;;;;;;;5.62;100.00;98569.91;109612;1251;58913;-72
2023/11/13 03:55:26;;;;;;;10.60;9.60;;;;;;;5.63;100.00;98567.91;109618;1251;59031;-73
2023/11/13 03:57:53;;;;;;;10.70;9.60;;;;;;;5.62;100.00;98570.23;109667;1254;74441;-74
2023/11/13 04:00:19;;;;;;;10.50;9.20;;;;;;;5.63;100.00;98573.18;109643;1251;67184;-72
2023/11/13 04:02:48;;;;;;;10.30;9.30;;;;;;;5.63;100.00;98574.73;109584;1251;72649;-71
2023/11/13 04:05:15;;;;;;;10.70;9.80;;;;;;;5.62;100.00;98575.69;109649;1251;60218;-73
2023/11/13 04:07:42;;;;;;;11.30;10.10;;;;;;;5.60;100.00;98577.65;109654;1251;60348;-73
2023/11/13 04:10:13;;;;;;;10.60;9.50;;;;;;;5.59;100.00;98581.23;109648;1251;59403;-71
2023/11/13 04:12:43;;;;;;;10.60;9.60;;;;;;;5.59;100.00;98582.66;109687;1251;67693;-72
2023/11/13 04:15:10;;;;;;;9.70;8.80;;;;;;;5.59;100.00;98585.69;109654;1251;71411;-74
2023/11/13 04:17:37;;;;;;;10.20;9.10;;;;;;;5.58;100.00;98585.02;109564;1251;59824;-72
2023/11/13 04:20:07;;;;;;;9.80;8.90;;;;;;;5.59;100.00;98590.28;109636;1251;60120;-72
2023/11/13 04:22:34;;;;;;;10.20;9.30;;;;;;;5.59;100.00;98594.11;109539;1251;73334;-71
2023/11/13 04:25:01;;;;;;;11.50;10.40;;;;;;;5.58;100.00;98595.78;109636;1251;68341;-72
2023/11/13 04:27:29;;;;;;;12.30;10.80;;;;;;;5.57;100.00;98595.85;109693;1251;71535;-72
2023/11/13 04:29:56;;;;;;;11.10;10.10;;;;;;;5.57;100.00;98593.85;109624;1251;58938;-70
2023/11/13 04:32:23;;;;;;;11.60;10.40;;;;;;;5.55;100.00;98587.45;109678;1251;60216;-73
2023/11/13 04:34:50;;;;;;;10.70;9.70;;;;;;;5.55;100.00;98591.43;109648;1251;73388;-74
2023/11/13 04:37:18;;;;;;;10.60;9.70;;;;;;;5.54;100.00;98592.52;109594;1251;59410;-74
2023/11/13 04:39:45;;;;;;;10.70;9.60;;;;;;;5.55;100.00;98588.95;109663;1251;71258;-77
2023/11/13 04:42:11;;;;;;;11.10;10.10;;;;;;;5.57;100.00;98589.95;109521;1251;59316;-74
2023/11/13 04:44:38;;;;;;;13.30;9.80;;;;;;;5.59;100.00;98589.04;109647;1255;60123;-76
2023/11/13 04:47:06;;;;;;;10.80;9.80;;;;;;;5.61;100.00;98590.91;109626;1251;74489;-72
2023/11/13 04:49:32;;;;;;;10.50;9.60;;;;;;;5.63;100.00;98597.30;109611;1251;68149;-73
2023/11/13 04:51:59;;;;;;;11.20;10.10;;;;;;;5.63;100.00;98602.15;109610;1251;59021;-71
2023/11/13 04:54:25;;;;;;;11.10;10.10;;;;;;;5.66;100.00;98604.73;109598;1251;59074;-73
2023/11/13 04:56:52;;;;;;;10.90;9.90;;;;;;;5.69;100.00;98606.45;109633;1251;59077;-71
2023/11/13 04:59:19;;;;;;;12.00;10.90;;;;;;;5.73;100.00;98608.63;109722;1250;58919;-73
2023/11/13 05:01:46;;;;;;;11.60;10.50;;;;;;;5.77;100.00;98609.66;109618;1251;66602;-70
2023/11/13 05:04:13;;;;;;;16.60;13.40;;;;;;;5.78;100.00;98610.63;109676;1251;72761;-72
2023/11/13 05:06:39;;;;;;;22.50;19.90;;;;;;;5.77;100.00;98612.14;109638;1250;60920;-73
2023/11/13 05:09:07;;;;;;;16.70;15.10;;;;;;;5.77;100.00;98611.65;109624;1251;58992;-73
2023/11/13 05:11:34;;;;;;;13.50;10.60;;;;;;;5.77;100.00;98609.83;109609;1251;74419;-73
2023/11/13 05:14:01;;;;;;;12.20;10.90;;;;;;;5.76;100.00;98613.27;109645;1251;66454;-73
2023/11/13 05:16:28;;;;;;;11.80;10.50;;;;;;;5.74;100.00;98615.02;109589;1252;71060;-71
2023/11/13 05:18:55;;;;;;;12.40;11.20;;;;;;;5.73;100.00;98612.48;109607;1251;59156;-74
2023/11/13 05:21:21;;;;;;;12.30;11.10;;;;;;;5.71;100.00;98612.05;109571;1251;60322;-73
2023/11/13 05:23:48;;;;;;;11.50;10.40;;;;;;;5.69;100.00;98616.86;109642;1250;75260;-74
2023/11/13 05:26:17;;;;;;;11.70;10.50;;;;;;;5.66;100.00;98618.86;109691;1254;67810;-69
2023/11/13 05:28:43;;;;;;;10.90;9.80;;;;;;;5.65;100.00;98618.80;109649;1251;72537;-73
2023/11/13 05:31:10;;;;;;;11.90;10.60;;;;;;;5.63;100.00;98626.45;109627;1251;60729;-72
2023/11/13 05:33:37;;;;;;;11.40;10.20;;;;;;;5.63;100.00;98628.40;109666;1254;60367;-69
2023/11/13 05:36:03;;;;;;;10.60;9.60;;;;;;;5.65;100.00;98632.00;109584;1251;58938;-71
2023/11/13 05:38:30;;;;;;;12.00;10.90;;;;;;;5.67;100.00;98630.39;109665;1251;66383;-75
2023/11/13 05:40:57;;;;;;;11.70;10.40;;;;;;;5.69;100.00;98636.68;109577;1254;72426;-72
2023/11/13 05:43:23;;;;;;;12.30;11.00;;;;;;;5.70;100.00;98637.52;109628;1251;58920;-70
2023/11/13 05:45:50;;;;;;;11.60;10.40;;;;;;;5.68;100.00;98641.77;109678;1251;60266;-74
2023/11/13 05:48:17;;;;;;;11.60;10.40;;;;;;;5.67;100.00;98644.86;109642;1251;74478;-74
2023/11/13 05:50:44;;;;;;;13.50;10.60;;;;;;;5.67;100.00;98643.23;109655;1250;66968;-70
2023/11/13 05:53:10;;;;;;;12.50;10.00;;;;;;;5.68;100.00;98646.11;109619;1251;71277;-72
2023/11/13 05:55:38;;;;;;;12.60;11.30;;;;;;;5.69;100.00;98642.73;109549;1251;60091;-73
2023/11/13 05:58:04;;;;;;;11.20;10.00;;;;;;;5.68;100.00;98638.23;109591;1250;60027;-71
2023/11/13 06:00:32;;;;;;;12.00;10.80;;;;;;;5.67;100.00;98639.05;109581;1251;73618;-71
2023/11/13 06:02:58;;;;;;;10.80;9.70;;;;;;;5.67;100.00;98639.95;109645;1251;67870;-70
2023/11/13 06:05:25;;;;;;;10.20;9.20;;;;;;;5.67;100.00;98643.95;109583;1251;71668;-74
2023/11/13 06:07:53;;;;;;;10.30;9.30;;;;;;;5.68;100.00;98644.73;109616;1251;59008;-69
2023/11/13 06:10:20;;;;;;;12.60;9.80;;;;;;;5.68;100.00;98644.70;109654;1251;59799;-69
2023/11/13 06:12:47;;;;;;;10.00;9.00;;;;;;;5.70;100.00;98647.48;109633;1251;74360;-74
2023/11/13 06:15:13;;;;;;;12.30;8.90;;;;;;;5.72;100.00;98647.29;109605;1251;66366;-73
2023/11/13 06:17:40;;;;;;;11.00;9.90;;;;;;;5.72;100.00;98648.21;109592;1251;72694;-74
2023/11/13 06:20:13;;;;;;;9.80;8.90;;;;;;;5.72;100.00;98649.23;109626;1250;58961;-73
2023/11/13 06:22:42;;;;;;;12.40;9.10;;;;;;;5.75;100.00;98656.87;109607;1251;60713;-71
2023/11/13 06:25:10;;;;;;;9.80;8.80;;;;;;;5.77;100.00;98657.27;109607;1250;74517;-70
2023/11/13 06:27:37;;;;;;;10.40;9.40;;;;;;;5.79;100.00;98660.77;109609;1250;67656;-78
2023/11/13 06:30:05;;;;;;;10.80;8.60;;;;;;;5.83;100.00;98656.56;109499;1251;72567;-77
2023/11/13 06:32:32;;;;;;;11.10;9.50;;;;;;;5.83;100.00;98652.98;109495;1251;59154;-75
2023/11/13 06:34:58;;;;;;;10.00;9.10;;;;;;;5.84;100.00;98649.89;109513;1251;59089;-74
2023/11/13 06:37:25;;;;;;;10.60;9.50;;;;;;;5.86;100.00;98649.38;109511;1251;60112;-75
2023/11/13 06:39:52;;;;;;;10.40;9.30;;;;;;;5.87;100.00;98651.73;109558;1251;67749;-75
2023/11/13 06:42:18;;;;;;;9.30;8.10;;;;;;;5.89;100.00;98657.66;109593;1251;71325;-74
2023/11/13 06:44:45;;;;;;;10.50;8.80;;;;;;;5.91;100.00;98662.01;109417;1250;59471;-76
2023/11/13 06:47:11;;;;;;;9.80;8.80;;;;;;;5.93;100.00;98664.62;109531;1251;58999;-76
2023/11/13 06:49:38;;;;;;;9.90;8.80;;;;;;;5.94;100.00;98669.80;109455;1251;74529;-76
2023/11/13 06:52:08;;;;;;;9.70;8.60;;;;;;;5.96;100.00;98669.98;109466;1251;67686;-76
2023/11/13 06:54:38;;;;;;;9.70;8.70;;;;;;;5.96;100.00;98669.92;109466;1251;73812;-75
2023/11/13 06:57:05;;;;;;;10.10;8.40;;;;;;;5.97;100.00;98669.94;109446;1251;59723;-76
2023/11/13 06:59:31;;;;;;;8.90;8.00;;;;;;;6.00;100.00;98671.50;109596;1251;59054;-76
2023/11/13 07:01:58;;;;;;;13.70;11.20;;;;;;;6.02;100.00;98668.79;109638;1251;73207;-76
2023/11/13 07:04:24;;;;;;;10.00;8.70;;;;;;;6.03;100.00;98668.64;109680;1251;66439;-76
2023/11/13 07:06:52;;;;;;;19.10;13.90;;;;;;;6.05;100.00;98667.42;109594;1251;72642;-77
2023/11/13 07:09:18;;;;;;;11.10;9.00;;;;;;;6.07;100.00;98665.94;109573;1251;59295;-75
2023/11/13 07:11:47;;;;;;;9.10;8.20;;;;;;;6.09;100.00;98661.16;109686;1251;60156;-77
2023/11/13 07:14:17;;;;;;;8.50;7.60;;;;;;;6.10;100.00;98663.17;109651;1251;74901;-77
2023/11/13 07:16:44;;;;;;;8.10;7.30;;;;;;;6.10;100.00;98663.11;109687;1251;67721;-76
2023/11/13 07:19:12;;;;;;;11.10;8.40;;;;;;;6.14;100.00;98663.09;109645;1251;72345;-76
2023/11/13 07:21:41;;;;;;;10.70;8.00;;;;;;;6.20;100.00;98665.77;109659;1250;61822;-76
2023/11/13 07:24:09;;;;;;;8.50;7.70;;;;;;;6.25;100.00;98664.20;109620;1250;60131;-76
2023/11/13 07:26:36;;;;;;;8.80;8.00;;;;;;;6.44;100.00;98660.19;109651;1250;74558;-76
2023/11/13 07:29:06;;;;;;;8.70;7.80;;;;;;;7.04;100.00;98663.51;109685;1251;66739;-76
2023/11/13 07:31:32;;;;;;;9.20;8.30;;;;;;;7.94;100.00;98661.34;109588;1251;71297;-77
2023/11/13 07:33:59;;;;;;;8.30;7.50;;;;;;;8.88;100.00;98651.43;109623;1250;60547;-78
2023/11/13 07:36:26;;;;;;;8.20;6.90;;;;;;;9.76;100.00;98650.59;109585;1251;58897;-78
2023/11/13 07:38:52;;;;;;;9.20;8.00;;;;;;;10.54;100.00;98643.80;109558;1251;72247;-76
2023/11/13 07:41:19;;;;;;;6.30;5.70;;;;;;;11.13;100.00;98637.39;109677;1250;66840;-76
2023/11/13 07:43:48;;;;;;;7.10;6.50;;;;;;;11.57;100.00;98638.98;109655;1251;71368;-77
2023/11/13 07:46:14;;;;;;;7.50;6.80;;;;;;;11.93;100.00;98633.97;109661;1251;59347;-76
2023/11/13 07:48:41;;;;;;;6.50;5.90;;;;;;;12.24;100.00;98629.73;109659;1251;60613;-77
2023/11/13 07:51:07;;;;;;;6.10;5.60;;;;;;;12.60;100.00;98631.48;109638;1250;59436;-77
2023/11/13 07:53:36;;;;;;;6.40;5.70;;;;;;;12.68;100.00;98627.75;109513;1251;66568;-78
2023/11/13 07:56:03;;;;;;;6.70;6.00;;;;;;;12.35;100.00;98626.38;109666;1251;72429;-77
2023/11/13 07:58:29;;;;;;;7.10;6.50;;;;;;;11.93;100.00;98634.29;109539;1251;60305;-77
2023/11/13 08:00:57;;;;;;;6.60;5.90;;;;;;;11.60;100.00;98637.36;109651;1250;58890;-74
2023/11/13 08:03:24;;;;;;;8.00;6.20;;;;;;;11.68;100.00;98633.27;109656;1251;74506;-76
2023/11/13 08:05:50;;;;;;;8.50;6.50;;;;;;;11.92;100.00;98630.59;109678;1250;67914;-76
2023/11/13 08:08:17;;;;;;;7.40;6.70;;;;;;;12.00;100.00;98639.04;109659;1250;72646;-75
2023/11/13 08:10:46;;;;;;;7.50;6.70;;;;;;;11.79;100.00;98640.25;109593;1250;58955;-76
2023/11/13 08:13:16;;;;;;;7.90;7.10;;;;;;;11.40;100.00;98643.78;109645;1251;58985;-77
2023/11/13 08:15:43;;;;;;;8.20;6.90;;;;;;;10.94;100.00;98648.33;109605;1250;74438;-75
2023/11/13 08:18:14;;;;;;;9.10;7.50;;;;;;;10.56;100.00;98649.55;109634;1250;67721;-76
2023/11/13 08:20:45;;;;;;;8.40;5.90;;;;;;;10.21;100.00;98654.45;109626;1251;72455;-75
2023/11/13 08:23:16;;;;;;;7.00;5.90;;;;;;;9.89;100.00;98659.02;109642;1251;59391;-77
2023/11/13 08:25:43;;;;;;;7.80;7.00;;;;;;;9.71;100.00;98659.41;109593;1251;60226;-77
2023/11/13 08:28:24;;;;;;;7.40;6.70;;;;;;;9.56;100.00;98661.73;109681;1250;74608;-77
2023/11/13 08:30:50;;;;;;;7.30;6.60;;;;;;;9.49;100.00;98661.48;109664;1250;66753;-77
2023/11/13 08:33:17;;;;;;;8.20;7.40;;;;;;;9.47;100.00;98660.35;109589;1251;72494;-77
2023/11/13 08:35:45;;;;;;;7.20;6.50;;;;;;;9.38;100.00;98665.04;109668;1251;59131;-77
2023/11/13 08:38:11;;;;;;;11.40;8.10;;;;;;;9.29;100.00;98659.18;109571;1251;60239;-78
2023/11/13 08:40:39;;;;;;;9.70;7.60;;;;;;;9.28;100.00;98660.61;109587;1251;74622;-77
2023/11/13 08:43:10;;;;;;;8.70;7.10;;;;;;;9.26;100.00;98663.39;109699;1250;66651;-76
2023/11/13 08:45:39;;;;;;;9.20;7.60;;;;;;;9.23;100.00;98659.16;109651;1250;71423;-77
2023/11/13 08:48:24;;;;;;;7.30;6.50;;;;;;;9.20;100.00;98665.70;109569;1251;59047;-77
2023/11/13 08:50:53;;;;;;;6.70;5.90;;;;;;;9.19;100.00;98665.41;109641;1250;60024;-77
2023/11/13 08:53:20;;;;;;;7.70;7.00;;;;;;;9.25;100.00;98666.38;109657;1250;74547;-78
2023/11/13 08:55:46;;;;;;;7.00;5.50;;;;;;;9.26;100.00;98667.46;109616;1251;67235;-78
2023/11/13 08:58:13;;;;;;;9.80;5.80;;;;;;;9.28;100.00;98668.28;109663;1250;71484;-78
2023/11/13 09:00:43;;;;;;;7.00;6.40;;;;;;;9.39;100.00;98667.66;109608;1250;61292;-77
2023/11/13 09:03:11;;;;;;;9.60;7.20;;;;;;;9.50;100.00;98675.51;109670;1250;58958;-78
2023/11/13 09:05:38;;;;;;;5.90;5.20;;;;;;;9.61;100.00;98671.33;109639;1250;74764;-77
2023/11/13 09:08:08;;;;;;;6.90;5.90;;;;;;;9.69;100.00;98668.42;109658;1250;66813;-76
2023/11/13 09:10:35;;;;;;;10.90;7.70;;;;;;;9.82;100.00;98665.65;109602;1250;71447;-77
2023/11/13 09:13:02;;;;;;;9.70;8.30;;;;;;;10.24;100.00;98664.77;109578;1251;59236;-78
2023/11/13 09:15:30;;;;;;;11.10;9.40;;;;;;;10.66;100.00;98658.43;109680;1250;59155;-77
2023/11/13 09:18:05;;;;;;;8.10;6.80;;;;;;;11.06;100.00;98655.52;109471;1250;74996;-76
2023/11/13 09:20:32;;;;;;;8.00;6.80;;;;;;;11.66;100.00;98656.36;109699;1251;67608;-77
2023/11/13 09:23:00;;;;;;;9.00;6.00;;;;;;;12.19;100.00;98646.27;109670;1250;72369;-76
2023/11/13 09:25:31;;;;;;;5.90;5.00;;;;;;;12.69;100.00;98648.57;109646;1250;59251;-76
2023/11/13 09:27:58;;;;;;;10.10;5.90;;;;;;;12.96;100.00;98643.29;109635;1252;59300;-77
2023/11/13 09:30:26;;;;;;;10.00;8.90;;;;;;;13.16;100.00;98646.69;109618;1251;73181;-75
2023/11/13 09:32:53;;;;;;;18.30;7.90;;;;;;;12.99;100.00;98649.14;109649;1251;66708;-75
2023/11/13 09:35:24;;;;;;;7.50;6.00;;;;;;;12.64;100.00;98652.17;109641;1251;73002;-75
2023/11/13 09:37:54;;;;;;;10.40;6.30;;;;;;;12.30;100.00;98653.58;109649;1250;59082;-77
2023/11/13 09:40:24;;;;;;;9.60;5.60;;;;;;;12.31;100.00;98653.00;109656;1251;60104;-76
2023/11/13 09:42:54;;;;;;;8.90;7.20;;;;;;;12.19;100.00;98653.26;109622;1251;73407;-76
2023/11/13 09:45:22;;;;;;;9.20;6.90;;;;;;;11.87;100.00;98656.77;109582;1250;67808;-76
2023/11/13 09:47:59;;;;;;;7.20;5.70;;;;;;;11.45;100.00;98655.29;109581;1250;71673;-77
2023/11/13 09:50:26;;;;;;;7.60;5.90;;;;;;;10.98;100.00;98656.00;109596;1250;58956;-76
2023/11/13 09:52:59;;;;;;;8.30;6.30;;;;;;;10.53;100.00;98661.24;109426;1251;197719;-76
2023/11/13 09:55:29;;;;;;;10.30;8.00;;;;;;;10.16;100.00;98667.52;109567;1250;73498;-76
2023/11/13 09:57:55;;;;;;;9.30;7.70;;;;;;;9.87;100.00;98666.98;109410;1250;66619;-78
2023/11/13 10:00:23;;;;;;;9.70;6.60;;;;;;;9.61;100.00;98669.95;109602;1250;71230;-76
2023/11/13 10:02:51;;;;;;;7.20;6.10;;;;;;;9.43;100.00;98669.92;109667;1251;59035;-77
2023/11/13 10:05:21;;;;;;;8.60;4.90;;;;;;;9.28;100.00;98665.46;109625;1250;60223;-77
2023/11/13 10:07:52;;;;;;;8.70;6.70;;;;;;;9.19;100.00;98663.76;109618;1251;73428;-76
2023/11/13 10:10:28;;;;;;;12.60;6.20;;;;;;;9.09;100.00;98660.80;109690;1250;68631;-77
2023/11/13 10:12:58;;;;;;;6.70;5.80;;;;;;;8.99;100.00;98661.34;109333;1251;72717;-77
2023/11/13 10:15:28;;;;;;;7.70;5.10;;;;;;;8.91;100.00;98662.23;109660;1250;58934;-79
2023/11/13 10:17:59;;;;;;;6.40;5.40;;;;;;;8.83;100.00;98660.54;109649;1250;59584;-77
2023/11/13 10:20:26;;;;;;;6.70;5.20;;;;;;;8.79;100.00;98654.67;109643;1250;74858;-77
2023/11/13 10:23:03;;;;;;;5.70;4.70;;;;;;;8.73;100.00;98656.77;109649;1250;66607;-76
2023/11/13 10:25:47;;;;;;;7.00;5.50;;;;;;;8.70;100.00;98652.01;109700;1250;71466;-77
2023/11/13 10:28:14;;;;;;;6.80;5.20;;;;;;;8.68;100.00;98652.21;109619;1250;61007;-78
2023/11/13 10:30:50;;;;;;;11.40;6.40;;;;;;;8.70;100.00;98653.75;109599;1250;58904;-76
2023/11/13 10:33:17;;;;;;;8.30;5.70;;;;;;;8.73;100.00;98655.77;109576;1251;73215;-78
2023/11/13 10:35:48;;;;;;;11.00;6.40;;;;;;;8.74;100.00;98659.39;109634;1251;66518;-77
2023/11/13 10:38:14;;;;;;;10.70;6.00;;;;;;;8.72;100.00;98654.47;109632;1250;72650;-77
2023/11/13 10:40:46;;;;;;;6.50;5.60;;;;;;;8.71;100.00;98656.90;109549;1253;59033;-77
2023/11/13 10:43:33;;;;;;;6.20;4.90;;;;;;;8.66;100.00;98655.25;109595;1250;59279;-77
2023/11/13 10:46:00;;;;;;;8.00;5.90;;;;;;;8.65;100.00;98656.48;109662;1250;74679;-77
2023/11/13 10:48:31;;;;;;;8.10;5.70;;;;;;;8.64;100.00;98659.77;109659;1250;67933;-76
2023/11/13 10:51:03;;;;;;;7.50;6.70;;;;;;;8.56;100.00;98654.83;109613;1250;70412;-75
2023/11/13 10:53:31;;;;;;;6.30;5.50;;;;;;;8.45;100.00;98653.02;109613;1250;59782;-77
2023/11/13 10:55:59;;;;;;;6.80;5.50;;;;;;;8.32;100.00;98649.23;109510;1251;60372;-76
2023/11/13 10:58:26;;;;;;;6.30;5.50;;;;;;;8.24;100.00;98643.37;109641;1251;73622;-76
2023/11/13 11:00:52;;;;;;;5.20;4.70;;;;;;;8.23;100.00;98643.40;109569;1251;69213;-77
2023/11/13 11:03:19;;;;;;;5.20;4.70;;;;;;;8.30;100.00;98639.56;109541;1251;71361;-76
2023/11/13 11:05:46;;;;;;;5.40;4.90;;;;;;;8.47;100.00;98642.46;109524;1253;61945;-78
2023/11/13 11:08:13;;;;;;;5.80;4.80;;;;;;;8.73;100.00;98639.80;109593;1251;59000;-77
2023/11/13 11:10:39;;;;;;;5.40;4.90;;;;;;;9.01;100.00;98643.73;109433;1254;74703;-76
2023/11/13 11:13:10;;;;;;;7.80;5.10;;;;;;;9.22;100.00;98641.98;109570;1251;67882;-78
2023/11/13 11:16:16;;;;;;;6.30;4.80;;;;;;;9.26;100.00;98640.86;109576;1251;71466;-77
2023/11/13 11:18:56;;;;;;;4.90;4.40;;;;;;;9.28;100.00;98642.08;109631;1250;58935;-77
2023/11/13 11:21:39;;;;;;;5.00;4.50;;;;;;;9.38;100.00;98640.73;109556;1251;60371;-76
2023/11/13 11:24:29;;;;;;;5.40;4.80;;;;;;;9.51;100.00;98639.19;109705;1250;73495;-76